sensor_id;sensor_type;location;lat;lon;timestamp;P1;durP1;ratioP1;P2;durP2;ratioP2
67026;SDS011;53933;52.142;11.738;2022-08-19T00:01:46;21.17;;;13.25;;
67026;SDS011;53933;52.142;11.738;2022-08-19T00:04:16;17.02;;;12.02;;
67026;SDS011;53933;52.142;11.738;2022-08-19T00:06:45;19.00;;;12.85;;
67026;SDS011;53933;52.142;11.738;2022-08-19T00:09:13;18.48;;;13.50;;
67026;SDS011;53933;52.142;11.738;2022-08-19T00:11:42;13.20;;;11.77;;
67026;SDS011;53933;52.142;11.738;2022-08-19T00:14:10;16.20;;;12.40;;
67026;SDS011;53933;52.142;11.738;2022-08-19T00:16:40;18.80;;;11.77;;
67026;SDS011;53933;52.142;11.738;2022-08-19T00:19:08;17.50;;;12.85;;
67026;SDS011;53933;52.142;11.738;2022-08-19T00:21:35;27.65;;;12.73;;
67026;SDS011;53933;52.142;11.738;2022-08-19T00:24:04;15.20;;;12.20;;
67026;SDS011;53933;52.142;11.738;2022-08-19T00:26:32;22.27;;;13.60;;
67026;SDS011;53933;52.142;11.738;2022-08-19T00:28:58;22.42;;;11.73;;
67026;SDS011;53933;52.142;11.738;2022-08-19T00:31:26;19.08;;;12.43;;
67026;SDS011;53933;52.142;11.738;2022-08-19T00:33:54;25.65;;;14.07;;
67026;SDS011;53933;52.142;11.738;2022-08-19T00:36:21;22.92;;;13.15;;
67026;SDS011;53933;52.142;11.738;2022-08-19T00:38:48;21.00;;;13.02;;
67026;SDS011;53933;52.142;11.738;2022-08-19T00:41:17;18.33;;;11.98;;
67026;SDS011;53933;52.142;11.738;2022-08-19T00:43:55;23.60;;;13.55;;
67026;SDS011;53933;52.142;11.738;2022-08-19T00:46:23;25.38;;;13.10;;
67026;SDS011;53933;52.142;11.738;2022-08-19T00:48:50;19.48;;;12.65;;
67026;SDS011;53933;52.142;11.738;2022-08-19T00:51:18;24.25;;;13.32;;
67026;SDS011;53933;52.142;11.738;2022-08-19T00:53:46;16.30;;;13.77;;
67026;SDS011;53933;52.142;11.738;2022-08-19T00:56:13;21.60;;;13.95;;
67026;SDS011;53933;52.142;11.738;2022-08-19T00:58:40;25.23;;;13.75;;
67026;SDS011;53933;52.142;11.738;2022-08-19T01:01:07;27.10;;;15.80;;
67026;SDS011;53933;52.142;11.738;2022-08-19T01:03:33;20.15;;;14.35;;
67026;SDS011;53933;52.142;11.738;2022-08-19T01:06:00;22.77;;;14.52;;
67026;SDS011;53933;52.142;11.738;2022-08-19T01:08:28;16.75;;;13.80;;
67026;SDS011;53933;52.142;11.738;2022-08-19T01:10:56;17.73;;;14.15;;
67026;SDS011;53933;52.142;11.738;2022-08-19T01:13:25;17.77;;;14.45;;
67026;SDS011;53933;52.142;11.738;2022-08-19T01:15:56;16.45;;;13.93;;
67026;SDS011;53933;52.142;11.738;2022-08-19T01:18:26;18.35;;;14.82;;
67026;SDS011;53933;52.142;11.738;2022-08-19T01:20:55;19.80;;;13.50;;
67026;SDS011;53933;52.142;11.738;2022-08-19T01:23:26;18.58;;;14.10;;
67026;SDS011;53933;52.142;11.738;2022-08-19T01:26:07;18.98;;;14.15;;
67026;SDS011;53933;52.142;11.738;2022-08-19T01:28:35;18.15;;;13.93;;
67026;SDS011;53933;52.142;11.738;2022-08-19T01:31:03;19.40;;;13.88;;
67026;SDS011;53933;52.142;11.738;2022-08-19T01:33:31;14.98;;;12.85;;
67026;SDS011;53933;52.142;11.738;2022-08-19T01:36:03;19.67;;;13.13;;
67026;SDS011;53933;52.142;11.738;2022-08-19T01:38:34;18.60;;;14.25;;
67026;SDS011;53933;52.142;11.738;2022-08-19T01:41:02;18.05;;;14.55;;
67026;SDS011;53933;52.142;11.738;2022-08-19T01:43:29;16.90;;;14.18;;
67026;SDS011;53933;52.142;11.738;2022-08-19T01:45:55;14.30;;;12.88;;
67026;SDS011;53933;52.142;11.738;2022-08-19T01:48:22;20.63;;;14.27;;
67026;SDS011;53933;52.142;11.738;2022-08-19T01:50:48;17.65;;;13.55;;
67026;SDS011;53933;52.142;11.738;2022-08-19T01:53:15;17.40;;;13.88;;
67026;SDS011;53933;52.142;11.738;2022-08-19T01:55:43;19.95;;;15.00;;
67026;SDS011;53933;52.142;11.738;2022-08-19T01:58:14;18.23;;;14.43;;
67026;SDS011;53933;52.142;11.738;2022-08-19T02:00:44;23.60;;;15.75;;
67026;SDS011;53933;52.142;11.738;2022-08-19T02:03:11;21.05;;;15.35;;
67026;SDS011;53933;52.142;11.738;2022-08-19T02:05:38;22.90;;;13.88;;
67026;SDS011;53933;52.142;11.738;2022-08-19T02:08:06;21.98;;;15.32;;
67026;SDS011;53933;52.142;11.738;2022-08-19T02:10:33;27.63;;;15.13;;
67026;SDS011;53933;52.142;11.738;2022-08-19T02:13:01;22.88;;;16.15;;
67026;SDS011;53933;52.142;11.738;2022-08-19T02:15:28;17.70;;;14.18;;
67026;SDS011;53933;52.142;11.738;2022-08-19T02:17:54;22.48;;;15.70;;
67026;SDS011;53933;52.142;11.738;2022-08-19T02:20:21;19.20;;;14.93;;
67026;SDS011;53933;52.142;11.738;2022-08-19T02:22:48;18.45;;;14.68;;
67026;SDS011;53933;52.142;11.738;2022-08-19T02:25:15;17.70;;;13.75;;
67026;SDS011;53933;52.142;11.738;2022-08-19T02:27:42;22.25;;;14.32;;
67026;SDS011;53933;52.142;11.738;2022-08-19T02:30:12;23.00;;;13.73;;
67026;SDS011;53933;52.142;11.738;2022-08-19T02:32:41;18.35;;;14.23;;
67026;SDS011;53933;52.142;11.738;2022-08-19T02:35:08;18.65;;;14.80;;
67026;SDS011;53933;52.142;11.738;2022-08-19T02:37:35;17.60;;;13.57;;
67026;SDS011;53933;52.142;11.738;2022-08-19T02:40:20;19.17;;;12.98;;
67026;SDS011;53933;52.142;11.738;2022-08-19T02:42:46;23.33;;;14.05;;
67026;SDS011;53933;52.142;11.738;2022-08-19T02:45:14;20.98;;;14.10;;
67026;SDS011;53933;52.142;11.738;2022-08-19T02:47:41;20.25;;;13.82;;
67026;SDS011;53933;52.142;11.738;2022-08-19T02:50:08;28.30;;;14.25;;
67026;SDS011;53933;52.142;11.738;2022-08-19T02:52:35;21.45;;;14.60;;
67026;SDS011;53933;52.142;11.738;2022-08-19T02:55:03;25.10;;;14.70;;
67026;SDS011;53933;52.142;11.738;2022-08-19T02:57:31;26.10;;;14.68;;
67026;SDS011;53933;52.142;11.738;2022-08-19T02:59:59;22.17;;;14.10;;
67026;SDS011;53933;52.142;11.738;2022-08-19T03:02:27;23.42;;;13.73;;
67026;SDS011;53933;52.142;11.738;2022-08-19T03:04:55;26.38;;;13.35;;
67026;SDS011;53933;52.142;11.738;2022-08-19T03:07:22;19.20;;;12.23;;
67026;SDS011;53933;52.142;11.738;2022-08-19T03:09:48;27.42;;;13.10;;
67026;SDS011;53933;52.142;11.738;2022-08-19T03:12:15;22.90;;;13.35;;
67026;SDS011;53933;52.142;11.738;2022-08-19T03:14:42;30.27;;;13.27;;
67026;SDS011;53933;52.142;11.738;2022-08-19T03:17:08;17.88;;;12.07;;
67026;SDS011;53933;52.142;11.738;2022-08-19T03:19:36;27.95;;;12.65;;
67026;SDS011;53933;52.142;11.738;2022-08-19T03:22:03;23.92;;;11.65;;
67026;SDS011;53933;52.142;11.738;2022-08-19T03:24:30;18.45;;;12.85;;
67026;SDS011;53933;52.142;11.738;2022-08-19T03:26:57;17.48;;;12.13;;
67026;SDS011;53933;52.142;11.738;2022-08-19T03:29:24;15.95;;;12.00;;
67026;SDS011;53933;52.142;11.738;2022-08-19T03:31:52;19.67;;;12.60;;
67026;SDS011;53933;52.142;11.738;2022-08-19T03:34:20;23.20;;;12.18;;
67026;SDS011;53933;52.142;11.738;2022-08-19T03:36:52;19.67;;;11.35;;
67026;SDS011;53933;52.142;11.738;2022-08-19T03:39:20;20.10;;;12.50;;
67026;SDS011;53933;52.142;11.738;2022-08-19T03:41:47;13.30;;;11.05;;
67026;SDS011;53933;52.142;11.738;2022-08-19T03:44:16;15.88;;;10.80;;
67026;SDS011;53933;52.142;11.738;2022-08-19T03:46:46;13.85;;;11.32;;
67026;SDS011;53933;52.142;11.738;2022-08-19T03:49:16;14.65;;;10.50;;
67026;SDS011;53933;52.142;11.738;2022-08-19T03:51:44;17.45;;;11.70;;
67026;SDS011;53933;52.142;11.738;2022-08-19T03:54:13;16.88;;;11.88;;
67026;SDS011;53933;52.142;11.738;2022-08-19T03:56:42;22.60;;;11.73;;
67026;SDS011;53933;52.142;11.738;2022-08-19T03:59:11;19.15;;;11.23;;
67026;SDS011;53933;52.142;11.738;2022-08-19T04:01:40;17.45;;;11.90;;
67026;SDS011;53933;52.142;11.738;2022-08-19T04:04:07;20.50;;;12.45;;
67026;SDS011;53933;52.142;11.738;2022-08-19T04:06:34;16.10;;;11.23;;
67026;SDS011;53933;52.142;11.738;2022-08-19T04:09:04;21.88;;;12.35;;
67026;SDS011;53933;52.142;11.738;2022-08-19T04:11:35;11.07;;;9.18;;
67026;SDS011;53933;52.142;11.738;2022-08-19T04:14:04;11.88;;;10.65;;
67026;SDS011;53933;52.142;11.738;2022-08-19T04:16:30;33.47;;;10.35;;
67026;SDS011;53933;52.142;11.738;2022-08-19T04:18:59;22.80;;;11.10;;
67026;SDS011;53933;52.142;11.738;2022-08-19T04:21:26;28.70;;;12.15;;
67026;SDS011;53933;52.142;11.738;2022-08-19T04:23:54;25.13;;;10.80;;
67026;SDS011;53933;52.142;11.738;2022-08-19T04:26:22;18.92;;;12.07;;
67026;SDS011;53933;52.142;11.738;2022-08-19T04:28:51;19.35;;;12.82;;
67026;SDS011;53933;52.142;11.738;2022-08-19T04:31:20;21.60;;;12.10;;
67026;SDS011;53933;52.142;11.738;2022-08-19T04:33:50;17.95;;;12.98;;
67026;SDS011;53933;52.142;11.738;2022-08-19T04:36:18;20.30;;;12.73;;
67026;SDS011;53933;52.142;11.738;2022-08-19T04:38:46;20.23;;;12.18;;
67026;SDS011;53933;52.142;11.738;2022-08-19T04:41:12;20.65;;;12.27;;
67026;SDS011;53933;52.142;11.738;2022-08-19T04:43:58;18.50;;;12.98;;
67026;SDS011;53933;52.142;11.738;2022-08-19T04:46:25;15.65;;;11.32;;
67026;SDS011;53933;52.142;11.738;2022-08-19T04:48:54;14.57;;;8.75;;
67026;SDS011;53933;52.142;11.738;2022-08-19T04:51:21;15.23;;;12.20;;
67026;SDS011;53933;52.142;11.738;2022-08-19T04:53:48;19.02;;;11.98;;
67026;SDS011;53933;52.142;11.738;2022-08-19T04:56:16;20.50;;;9.73;;
67026;SDS011;53933;52.142;11.738;2022-08-19T04:58:45;15.18;;;10.85;;
67026;SDS011;53933;52.142;11.738;2022-08-19T05:01:14;16.10;;;11.45;;
67026;SDS011;53933;52.142;11.738;2022-08-19T05:03:44;18.17;;;11.40;;
67026;SDS011;53933;52.142;11.738;2022-08-19T05:06:11;16.35;;;10.48;;
67026;SDS011;53933;52.142;11.738;2022-08-19T05:08:41;17.27;;;10.75;;
67026;SDS011;53933;52.142;11.738;2022-08-19T05:11:09;19.30;;;11.48;;
67026;SDS011;53933;52.142;11.738;2022-08-19T05:13:37;17.00;;;11.20;;
67026;SDS011;53933;52.142;11.738;2022-08-19T05:16:05;16.38;;;10.38;;
67026;SDS011;53933;52.142;11.738;2022-08-19T05:18:33;17.08;;;11.98;;
67026;SDS011;53933;52.142;11.738;2022-08-19T05:21:18;13.50;;;10.60;;
67026;SDS011;53933;52.142;11.738;2022-08-19T05:24:03;18.23;;;12.45;;
67026;SDS011;53933;52.142;11.738;2022-08-19T05:26:33;18.77;;;12.07;;
67026;SDS011;53933;52.142;11.738;2022-08-19T05:29:00;15.02;;;11.07;;
67026;SDS011;53933;52.142;11.738;2022-08-19T05:31:26;14.75;;;9.77;;
67026;SDS011;53933;52.142;11.738;2022-08-19T05:33:54;18.15;;;11.23;;
67026;SDS011;53933;52.142;11.738;2022-08-19T05:36:23;15.60;;;11.93;;
67026;SDS011;53933;52.142;11.738;2022-08-19T05:38:50;13.75;;;11.85;;
67026;SDS011;53933;52.142;11.738;2022-08-19T05:41:17;16.40;;;11.48;;
67026;SDS011;53933;52.142;11.738;2022-08-19T05:43:45;17.73;;;12.13;;
67026;SDS011;53933;52.142;11.738;2022-08-19T05:46:16;14.60;;;10.57;;
67026;SDS011;53933;52.142;11.738;2022-08-19T05:48:43;17.58;;;11.13;;
67026;SDS011;53933;52.142;11.738;2022-08-19T05:51:12;15.20;;;10.95;;
67026;SDS011;53933;52.142;11.738;2022-08-19T05:53:39;13.60;;;11.05;;
67026;SDS011;53933;52.142;11.738;2022-08-19T05:56:05;13.45;;;10.80;;
67026;SDS011;53933;52.142;11.738;2022-08-19T05:58:33;14.48;;;12.43;;
67026;SDS011;53933;52.142;11.738;2022-08-19T06:01:00;17.83;;;10.63;;
67026;SDS011;53933;52.142;11.738;2022-08-19T06:03:30;14.77;;;10.82;;
67026;SDS011;53933;52.142;11.738;2022-08-19T06:05:57;20.02;;;11.75;;
67026;SDS011;53933;52.142;11.738;2022-08-19T06:08:26;19.73;;;11.02;;
67026;SDS011;53933;52.142;11.738;2022-08-19T06:10:53;16.35;;;11.13;;
67026;SDS011;53933;52.142;11.738;2022-08-19T06:13:21;15.70;;;11.57;;
67026;SDS011;53933;52.142;11.738;2022-08-19T06:15:48;18.70;;;11.10;;
67026;SDS011;53933;52.142;11.738;2022-08-19T06:18:15;17.75;;;11.65;;
67026;SDS011;53933;52.142;11.738;2022-08-19T06:20:42;16.75;;;11.60;;
67026;SDS011;53933;52.142;11.738;2022-08-19T06:23:09;25.33;;;11.88;;
67026;SDS011;53933;52.142;11.738;2022-08-19T06:25:36;14.98;;;11.95;;
67026;SDS011;53933;52.142;11.738;2022-08-19T06:28:05;16.90;;;11.10;;
67026;SDS011;53933;52.142;11.738;2022-08-19T06:30:31;25.45;;;11.65;;
67026;SDS011;53933;52.142;11.738;2022-08-19T06:32:58;16.88;;;11.65;;
67026;SDS011;53933;52.142;11.738;2022-08-19T06:35:25;21.52;;;11.80;;
67026;SDS011;53933;52.142;11.738;2022-08-19T06:37:51;18.85;;;13.05;;
67026;SDS011;53933;52.142;11.738;2022-08-19T06:40:18;17.02;;;12.48;;
67026;SDS011;53933;52.142;11.738;2022-08-19T06:42:46;19.08;;;12.52;;
67026;SDS011;53933;52.142;11.738;2022-08-19T06:45:13;19.45;;;11.38;;
67026;SDS011;53933;52.142;11.738;2022-08-19T06:47:40;26.02;;;12.70;;
67026;SDS011;53933;52.142;11.738;2022-08-19T06:50:12;21.08;;;13.00;;
67026;SDS011;53933;52.142;11.738;2022-08-19T06:52:39;17.77;;;11.00;;
67026;SDS011;53933;52.142;11.738;2022-08-19T06:55:06;21.35;;;11.45;;
67026;SDS011;53933;52.142;11.738;2022-08-19T06:57:33;25.60;;;10.93;;
67026;SDS011;53933;52.142;11.738;2022-08-19T07:00:01;18.52;;;10.98;;
67026;SDS011;53933;52.142;11.738;2022-08-19T07:02:29;17.02;;;11.57;;
67026;SDS011;53933;52.142;11.738;2022-08-19T07:04:56;20.75;;;12.10;;
67026;SDS011;53933;52.142;11.738;2022-08-19T07:07:23;20.33;;;11.68;;
67026;SDS011;53933;52.142;11.738;2022-08-19T07:09:50;29.20;;;10.90;;
67026;SDS011;53933;52.142;11.738;2022-08-19T07:12:18;16.42;;;10.85;;
67026;SDS011;53933;52.142;11.738;2022-08-19T07:14:44;18.98;;;10.68;;
67026;SDS011;53933;52.142;11.738;2022-08-19T07:17:14;17.40;;;11.63;;
67026;SDS011;53933;52.142;11.738;2022-08-19T07:19:41;13.60;;;11.00;;
67026;SDS011;53933;52.142;11.738;2022-08-19T07:22:08;14.63;;;10.52;;
67026;SDS011;53933;52.142;11.738;2022-08-19T07:24:35;14.88;;;10.48;;
67026;SDS011;53933;52.142;11.738;2022-08-19T07:27:03;16.58;;;11.55;;
67026;SDS011;53933;52.142;11.738;2022-08-19T07:29:33;23.80;;;10.73;;
67026;SDS011;53933;52.142;11.738;2022-08-19T07:32:01;69.78;;;14.50;;
67026;SDS011;53933;52.142;11.738;2022-08-19T07:34:30;38.78;;;14.25;;
67026;SDS011;53933;52.142;11.738;2022-08-19T07:37:02;40.25;;;15.05;;
67026;SDS011;53933;52.142;11.738;2022-08-19T07:39:30;24.95;;;12.90;;
67026;SDS011;53933;52.142;11.738;2022-08-19T07:41:59;29.50;;;14.98;;
67026;SDS011;53933;52.142;11.738;2022-08-19T07:44:27;25.35;;;15.75;;
67026;SDS011;53933;52.142;11.738;2022-08-19T07:46:54;18.83;;;14.70;;
67026;SDS011;53933;52.142;11.738;2022-08-19T07:49:22;35.17;;;14.70;;
67026;SDS011;53933;52.142;11.738;2022-08-19T07:51:51;29.23;;;15.45;;
67026;SDS011;53933;52.142;11.738;2022-08-19T07:54:22;31.38;;;16.83;;
67026;SDS011;53933;52.142;11.738;2022-08-19T07:56:50;22.92;;;15.45;;
67026;SDS011;53933;52.142;11.738;2022-08-19T07:59:17;29.77;;;17.15;;
67026;SDS011;53933;52.142;11.738;2022-08-19T08:01:45;23.02;;;16.73;;
67026;SDS011;53933;52.142;11.738;2022-08-19T08:04:12;27.25;;;17.67;;
67026;SDS011;53933;52.142;11.738;2022-08-19T08:06:58;22.50;;;16.67;;
67026;SDS011;53933;52.142;11.738;2022-08-19T08:09:42;20.15;;;16.48;;
67026;SDS011;53933;52.142;11.738;2022-08-19T08:12:11;22.58;;;17.30;;
67026;SDS011;53933;52.142;11.738;2022-08-19T08:14:41;23.30;;;17.90;;
67026;SDS011;53933;52.142;11.738;2022-08-19T08:17:09;30.30;;;16.88;;
67026;SDS011;53933;52.142;11.738;2022-08-19T08:19:37;31.40;;;18.00;;
67026;SDS011;53933;52.142;11.738;2022-08-19T08:22:07;23.63;;;13.43;;
67026;SDS011;53933;52.142;11.738;2022-08-19T08:24:55;12.60;;;10.63;;
67026;SDS011;53933;52.142;11.738;2022-08-19T08:27:24;12.25;;;9.90;;
67026;SDS011;53933;52.142;11.738;2022-08-19T08:29:50;15.48;;;10.68;;
67026;SDS011;53933;52.142;11.738;2022-08-19T08:32:17;15.23;;;10.27;;
67026;SDS011;53933;52.142;11.738;2022-08-19T08:34:44;11.93;;;9.55;;
67026;SDS011;53933;52.142;11.738;2022-08-19T08:37:12;14.30;;;9.55;;
67026;SDS011;53933;52.142;11.738;2022-08-19T08:39:39;12.95;;;10.35;;
67026;SDS011;53933;52.142;11.738;2022-08-19T08:42:06;13.15;;;10.07;;
67026;SDS011;53933;52.142;11.738;2022-08-19T08:44:39;12.57;;;9.50;;
67026;SDS011;53933;52.142;11.738;2022-08-19T08:47:15;16.33;;;9.82;;
67026;SDS011;53933;52.142;11.738;2022-08-19T08:49:45;12.30;;;9.85;;
67026;SDS011;53933;52.142;11.738;2022-08-19T08:52:18;12.98;;;10.07;;
67026;SDS011;53933;52.142;11.738;2022-08-19T08:54:49;12.85;;;9.48;;
67026;SDS011;53933;52.142;11.738;2022-08-19T08:57:22;10.45;;;9.07;;
67026;SDS011;53933;52.142;11.738;2022-08-19T09:00:02;13.07;;;9.32;;
67026;SDS011;53933;52.142;11.738;2022-08-19T09:02:32;12.10;;;9.70;;
67026;SDS011;53933;52.142;11.738;2022-08-19T09:04:59;15.13;;;9.80;;
67026;SDS011;53933;52.142;11.738;2022-08-19T09:07:29;10.82;;;9.30;;
67026;SDS011;53933;52.142;11.738;2022-08-19T09:10:08;13.18;;;9.35;;
67026;SDS011;53933;52.142;11.738;2022-08-19T09:12:43;11.07;;;9.23;;
67026;SDS011;53933;52.142;11.738;2022-08-19T09:15:17;14.50;;;9.27;;
67026;SDS011;53933;52.142;11.738;2022-08-19T09:17:47;16.33;;;9.35;;
67026;SDS011;53933;52.142;11.738;2022-08-19T09:20:15;13.20;;;9.30;;
67026;SDS011;53933;52.142;11.738;2022-08-19T09:22:46;10.95;;;9.27;;
67026;SDS011;53933;52.142;11.738;2022-08-19T09:25:14;11.05;;;9.25;;
67026;SDS011;53933;52.142;11.738;2022-08-19T09:27:43;15.73;;;9.27;;
67026;SDS011;53933;52.142;11.738;2022-08-19T09:30:11;12.68;;;9.32;;
67026;SDS011;53933;52.142;11.738;2022-08-19T09:32:40;10.85;;;9.30;;
67026;SDS011;53933;52.142;11.738;2022-08-19T09:35:08;13.95;;;9.05;;
67026;SDS011;53933;52.142;11.738;2022-08-19T09:37:35;11.45;;;8.90;;
67026;SDS011;53933;52.142;11.738;2022-08-19T09:40:04;10.65;;;9.10;;
67026;SDS011;53933;52.142;11.738;2022-08-19T09:42:32;13.35;;;9.25;;
67026;SDS011;53933;52.142;11.738;2022-08-19T09:44:59;10.63;;;9.32;;
67026;SDS011;53933;52.142;11.738;2022-08-19T09:47:26;12.40;;;9.13;;
67026;SDS011;53933;52.142;11.738;2022-08-19T09:49:53;10.85;;;9.57;;
67026;SDS011;53933;52.142;11.738;2022-08-19T09:52:19;10.63;;;9.43;;
67026;SDS011;53933;52.142;11.738;2022-08-19T09:54:46;13.45;;;9.57;;
67026;SDS011;53933;52.142;11.738;2022-08-19T09:57:14;16.70;;;9.98;;
67026;SDS011;53933;52.142;11.738;2022-08-19T09:59:43;10.68;;;9.05;;
67026;SDS011;53933;52.142;11.738;2022-08-19T10:02:09;17.65;;;9.10;;
67026;SDS011;53933;52.142;11.738;2022-08-19T10:04:36;10.95;;;8.63;;
67026;SDS011;53933;52.142;11.738;2022-08-19T10:07:21;10.77;;;8.63;;
67026;SDS011;53933;52.142;11.738;2022-08-19T10:09:47;9.75;;;8.75;;
67026;SDS011;53933;52.142;11.738;2022-08-19T10:12:15;13.07;;;8.85;;
67026;SDS011;53933;52.142;11.738;2022-08-19T10:14:42;15.73;;;8.30;;
67026;SDS011;53933;52.142;11.738;2022-08-19T10:17:10;9.48;;;8.57;;
67026;SDS011;53933;52.142;11.738;2022-08-19T10:19:37;11.88;;;8.85;;
67026;SDS011;53933;52.142;11.738;2022-08-19T10:22:03;8.90;;;7.95;;
67026;SDS011;53933;52.142;11.738;2022-08-19T10:24:32;10.85;;;8.02;;
67026;SDS011;53933;52.142;11.738;2022-08-19T10:26:59;12.82;;;7.97;;
67026;SDS011;53933;52.142;11.738;2022-08-19T10:29:29;11.05;;;8.48;;
67026;SDS011;53933;52.142;11.738;2022-08-19T10:31:56;10.52;;;7.97;;
67026;SDS011;53933;52.142;11.738;2022-08-19T10:34:25;9.10;;;8.20;;
67026;SDS011;53933;52.142;11.738;2022-08-19T10:36:53;9.35;;;8.43;;
67026;SDS011;53933;52.142;11.738;2022-08-19T10:39:19;10.23;;;7.60;;
67026;SDS011;53933;52.142;11.738;2022-08-19T10:41:46;11.77;;;8.35;;
67026;SDS011;53933;52.142;11.738;2022-08-19T10:44:13;9.50;;;7.55;;
67026;SDS011;53933;52.142;11.738;2022-08-19T10:46:42;8.75;;;7.85;;
67026;SDS011;53933;52.142;11.738;2022-08-19T10:49:11;8.73;;;7.82;;
67026;SDS011;53933;52.142;11.738;2022-08-19T10:51:38;9.43;;;7.30;;
67026;SDS011;53933;52.142;11.738;2022-08-19T10:54:23;8.13;;;7.22;;
67026;SDS011;53933;52.142;11.738;2022-08-19T10:57:11;14.35;;;7.18;;
67026;SDS011;53933;52.142;11.738;2022-08-19T10:59:37;12.27;;;8.27;;
67026;SDS011;53933;52.142;11.738;2022-08-19T11:02:05;11.85;;;8.70;;
67026;SDS011;53933;52.142;11.738;2022-08-19T11:04:34;11.18;;;9.85;;
67026;SDS011;53933;52.142;11.738;2022-08-19T11:07:02;11.65;;;8.55;;
67026;SDS011;53933;52.142;11.738;2022-08-19T11:09:29;12.85;;;10.00;;
67026;SDS011;53933;52.142;11.738;2022-08-19T11:11:57;12.95;;;8.82;;
67026;SDS011;53933;52.142;11.738;2022-08-19T11:14:23;17.52;;;9.70;;
67026;SDS011;53933;52.142;11.738;2022-08-19T11:16:50;10.63;;;8.57;;
67026;SDS011;53933;52.142;11.738;2022-08-19T11:19:22;10.70;;;8.38;;
67026;SDS011;53933;52.142;11.738;2022-08-19T11:21:49;11.60;;;10.40;;
67026;SDS011;53933;52.142;11.738;2022-08-19T11:24:18;11.32;;;8.80;;
67026;SDS011;53933;52.142;11.738;2022-08-19T11:26:46;9.68;;;8.70;;
67026;SDS011;53933;52.142;11.738;2022-08-19T11:29:14;11.48;;;9.55;;
67026;SDS011;53933;52.142;11.738;2022-08-19T11:31:44;12.43;;;10.20;;
67026;SDS011;53933;52.142;11.738;2022-08-19T11:34:13;23.05;;;9.27;;
67026;SDS011;53933;52.142;11.738;2022-08-19T11:36:44;11.38;;;9.15;;
67026;SDS011;53933;52.142;11.738;2022-08-19T11:39:13;10.30;;;9.23;;
67026;SDS011;53933;52.142;11.738;2022-08-19T11:41:41;11.57;;;8.35;;
67026;SDS011;53933;52.142;11.738;2022-08-19T11:44:08;11.30;;;8.60;;
67026;SDS011;53933;52.142;11.738;2022-08-19T11:46:35;13.82;;;10.07;;
67026;SDS011;53933;52.142;11.738;2022-08-19T11:49:04;13.52;;;9.02;;
67026;SDS011;53933;52.142;11.738;2022-08-19T11:51:32;16.20;;;9.73;;
67026;SDS011;53933;52.142;11.738;2022-08-19T11:54:01;15.27;;;9.38;;
67026;SDS011;53933;52.142;11.738;2022-08-19T11:56:30;10.65;;;9.30;;
67026;SDS011;53933;52.142;11.738;2022-08-19T11:58:57;13.40;;;9.80;;
67026;SDS011;53933;52.142;11.738;2022-08-19T12:01:24;12.25;;;10.10;;
67026;SDS011;53933;52.142;11.738;2022-08-19T12:03:52;19.02;;;11.38;;
67026;SDS011;53933;52.142;11.738;2022-08-19T12:06:21;17.88;;;10.45;;
67026;SDS011;53933;52.142;11.738;2022-08-19T12:08:50;13.13;;;9.48;;
67026;SDS011;53933;52.142;11.738;2022-08-19T12:11:19;11.10;;;9.43;;
67026;SDS011;53933;52.142;11.738;2022-08-19T12:13:45;11.73;;;9.18;;
67026;SDS011;53933;52.142;11.738;2022-08-19T12:16:13;14.45;;;9.70;;
67026;SDS011;53933;52.142;11.738;2022-08-19T12:18:41;12.23;;;8.77;;
67026;SDS011;53933;52.142;11.738;2022-08-19T12:21:11;12.43;;;9.65;;
67026;SDS011;53933;52.142;11.738;2022-08-19T12:23:38;11.18;;;9.60;;
67026;SDS011;53933;52.142;11.738;2022-08-19T12:26:05;12.63;;;9.63;;
67026;SDS011;53933;52.142;11.738;2022-08-19T12:28:33;12.02;;;10.02;;
67026;SDS011;53933;52.142;11.738;2022-08-19T12:31:00;15.13;;;8.98;;
67026;SDS011;53933;52.142;11.738;2022-08-19T12:33:27;12.93;;;8.98;;
67026;SDS011;53933;52.142;11.738;2022-08-19T12:35:54;12.18;;;9.13;;
67026;SDS011;53933;52.142;11.738;2022-08-19T12:38:25;12.30;;;10.68;;
67026;SDS011;53933;52.142;11.738;2022-08-19T12:40:52;12.30;;;8.80;;
67026;SDS011;53933;52.142;11.738;2022-08-19T12:43:18;12.02;;;9.98;;
67026;SDS011;53933;52.142;11.738;2022-08-19T12:45:46;10.80;;;9.48;;
67026;SDS011;53933;52.142;11.738;2022-08-19T12:48:13;13.27;;;9.93;;
67026;SDS011;53933;52.142;11.738;2022-08-19T12:50:40;12.32;;;9.32;;
67026;SDS011;53933;52.142;11.738;2022-08-19T12:53:07;10.10;;;8.50;;
67026;SDS011;53933;52.142;11.738;2022-08-19T12:55:34;11.50;;;9.02;;
67026;SDS011;53933;52.142;11.738;2022-08-19T12:58:01;12.10;;;8.68;;
67026;SDS011;53933;52.142;11.738;2022-08-19T13:00:27;9.20;;;7.82;;
67026;SDS011;53933;52.142;11.738;2022-08-19T13:02:57;9.50;;;8.60;;
67026;SDS011;53933;52.142;11.738;2022-08-19T13:05:24;8.93;;;8.02;;
67026;SDS011;53933;52.142;11.738;2022-08-19T13:07:54;12.07;;;8.82;;
67026;SDS011;53933;52.142;11.738;2022-08-19T13:10:22;9.02;;;8.10;;
67026;SDS011;53933;52.142;11.738;2022-08-19T13:12:52;12.45;;;8.43;;
67026;SDS011;53933;52.142;11.738;2022-08-19T13:15:20;11.80;;;8.02;;
67026;SDS011;53933;52.142;11.738;2022-08-19T13:17:48;11.65;;;8.18;;
67026;SDS011;53933;52.142;11.738;2022-08-19T13:20:18;11.85;;;7.57;;
67026;SDS011;53933;52.142;11.738;2022-08-19T13:22:46;11.90;;;8.68;;
67026;SDS011;53933;52.142;11.738;2022-08-19T13:25:13;10.73;;;7.57;;
67026;SDS011;53933;52.142;11.738;2022-08-19T13:27:44;12.38;;;8.75;;
67026;SDS011;53933;52.142;11.738;2022-08-19T13:30:12;9.50;;;7.55;;
67026;SDS011;53933;52.142;11.738;2022-08-19T13:32:58;9.57;;;7.78;;
67026;SDS011;53933;52.142;11.738;2022-08-19T13:35:38;14.52;;;9.38;;
67026;SDS011;53933;52.142;11.738;2022-08-19T13:38:07;10.65;;;8.15;;
67026;SDS011;53933;52.142;11.738;2022-08-19T13:40:34;10.80;;;7.60;;
67026;SDS011;53933;52.142;11.738;2022-08-19T13:43:01;9.02;;;6.95;;
67026;SDS011;53933;52.142;11.738;2022-08-19T13:45:30;8.57;;;7.28;;
67026;SDS011;53933;52.142;11.738;2022-08-19T13:47:59;11.98;;;7.47;;
67026;SDS011;53933;52.142;11.738;2022-08-19T13:50:30;11.48;;;7.95;;
67026;SDS011;53933;52.142;11.738;2022-08-19T13:52:58;14.65;;;7.97;;
67026;SDS011;53933;52.142;11.738;2022-08-19T13:55:26;9.73;;;7.25;;
67026;SDS011;53933;52.142;11.738;2022-08-19T13:57:53;10.48;;;8.13;;
67026;SDS011;53933;52.142;11.738;2022-08-19T14:00:22;10.02;;;8.10;;
67026;SDS011;53933;52.142;11.738;2022-08-19T14:02:51;12.52;;;7.32;;
67026;SDS011;53933;52.142;11.738;2022-08-19T14:05:20;11.27;;;7.80;;
67026;SDS011;53933;52.142;11.738;2022-08-19T14:07:47;10.45;;;7.88;;
67026;SDS011;53933;52.142;11.738;2022-08-19T14:10:16;16.95;;;8.20;;
67026;SDS011;53933;52.142;11.738;2022-08-19T14:12:43;9.45;;;7.38;;
67026;SDS011;53933;52.142;11.738;2022-08-19T14:15:11;11.45;;;7.82;;
67026;SDS011;53933;52.142;11.738;2022-08-19T14:17:39;13.90;;;7.88;;
67026;SDS011;53933;52.142;11.738;2022-08-19T14:20:07;10.70;;;7.53;;
67026;SDS011;53933;52.142;11.738;2022-08-19T14:22:36;10.57;;;7.35;;